Morton, Arkansas
Current Conditions -  °F | °C
As of 12:56 PM on Friday 28 Nov 2014 (Local Time) from KM19 Reporting Station
Clear Clear  
Wind Chill: 53°   Ceiling: Unl
Heat Index: 53°   Visibility: 10mi
Dew Point: 33°   Wind: 16mph
Humidity: 47%   Direction: 180°S
Pressure: 30.2"   Gusts: NA
Location:  35.2139°N, 91.1509°W
Report Text: KM19 281856Z AUTO 18014KT 10SM CLR 12/01 A3020 RMK AO2 T01160005 SLP226
Loading
Personal Weather Stations






























Interactive Weather Map New forecast layout! Learn more

10-Day Weather Forecast

Advertisements
Track Severe Weather on mobile